Thunder radar more information blitzortung!


Radar de pluja more information rain snow radar


Visita la nostra xarxa de llocs de meteo:

Template documentation
and downloads

And another site



No particular awareness of the weather is required.    There are no Weather-warnings

Pagina Historial Weather Underground text

Diari Resum January 20, 2018 Unitats:  Imperial    Mètric   Tant
« Previous Dia
SegĂźent Dia »
Diari Setmana Mensual Anual Personalitzada
  Maxima: Minima: Media:
Temperatura: TemperatureF °F 39.4 °F 53.4 °F
Punt de rosada: DewpointF °F 30.9 °F 37.3 °F
Humitat: Humidity % 45 % 55 %
Wind Speed: WindSpeedMPH mph 0.0 mph 3.9 mph
RĂ fegues de vent: WindSpeedGustMPH mph - -
Vent:- - SW
Pression baro: PressureIn in 30.00 in -
Precipitacions: 0.00 in    
Historical Graphs
 
 
Dades de taula per January 20, 2018
Temps Temperatura Punt de rosada Pression baro Vent Wind Speed RĂ fegues de vent Humitat Rainfall Rate (Hourly)
TemperatureF °F DewpointF °F PressureIn in Calm     Humidity % HourlyPrecipIn in
00:00 40.1 °F 31.4 °F 30.15 in Calm   3.0 mph 71 % 0.00 in
00:04 44.1 °F 35.3 °F 30.12 in WSW 2.3 mph 2.3 mph 71 % 0.00 in
00:09 44.2 °F 35.4 °F 30.12 in WSW 1.2 mph   71 % 0.00 in
00:14 44.4 °F 35.6 °F 30.12 in Calm     71 % 0.00 in
00:20 39.6 °F 30.9 °F 30.18 in WNW 1.0 mph 1.0 mph 71 % 0.00 in
00:30 39.6 °F 30.9 °F 30.18 in WNW 2.0 mph 2.0 mph 71 % 0.00 in
00:40 39.9 °F 31.6 °F 30.18 in NNE 3.0 mph 4.0 mph 72 % 0.00 in
00:50 39.7 °F 31.4 °F 30.15 in NE 3.0 mph 5.0 mph 72 % 0.00 in
01:00 39.6 °F 31.3 °F 30.15 in NNE 2.0 mph 4.0 mph 72 % 0.00 in
01:10 39.4 °F 31.1 °F 30.15 in North 1.0 mph 2.0 mph 72 % 0.00 in
01:20 39.4 °F 31.1 °F 30.15 in NNW 1.0 mph 2.0 mph 72 % 0.00 in
01:30 39.4 °F 31.4 °F 30.15 in North 1.0 mph 3.0 mph 73 % 0.00 in
01:40 39.6 °F 31.6 °F 30.18 in NNW 1.0 mph 2.0 mph 73 % 0.00 in
01:50 39.7 °F 31.8 °F 30.15 in NNE 1.0 mph 3.0 mph 73 % 0.00 in
02:00 39.6 °F 31.6 °F 30.15 in NNE 1.0 mph 3.0 mph 73 % 0.00 in
02:10 39.4 °F 31.4 °F 30.18 in North 1.0 mph 3.0 mph 73 % 0.00 in
02:20 39.4 °F 31.4 °F 30.18 in NNE 2.0 mph 3.0 mph 73 % 0.00 in
02:30 39.4 °F 31.4 °F 30.18 in NNE 2.0 mph 4.0 mph 73 % 0.00 in
02:40 39.7 °F 31.8 °F 30.18 in NNE 1.0 mph 2.0 mph 73 % 0.00 in
03:00 41.5 °F 33.5 °F 30.18 in North 1.0 mph 3.0 mph 73 % 0.00 in
03:10 42.1 °F 33.7 °F 30.18 in NE 2.0 mph 3.0 mph 72 % 0.00 in
03:20 42.4 °F 33.7 °F 30.18 in NE 3.0 mph 4.0 mph 71 % 0.00 in
03:30 43.2 °F 34.4 °F 30.18 in NNE 2.0 mph 2.0 mph 71 % 0.00 in
03:40 44.2 °F 35.4 °F 30.18 in Calm   2.0 mph 71 % 0.00 in
03:50 45.0 °F 35.8 °F 30.18 in Calm   2.0 mph 70 % 0.00 in
04:00 45.0 °F 35.4 °F 30.18 in North 1.0 mph 3.0 mph 69 % 0.00 in
04:10 44.1 °F 34.2 °F 30.18 in NE 6.0 mph 6.0 mph 68 % 0.00 in
04:20 44.6 °F 34.7 °F 30.18 in NE 3.0 mph 4.0 mph 68 % 0.00 in
04:30 45.7 °F 35.7 °F 30.18 in NE 3.0 mph 4.0 mph 68 % 0.00 in
04:40 46.6 °F 36.2 °F 30.18 in NNE 1.0 mph 4.0 mph 67 % 0.00 in
04:50 47.5 °F 37.1 °F 30.18 in NNE 1.0 mph 3.0 mph 67 % 0.00 in
05:00 47.3 °F 36.5 °F 30.18 in NE 2.0 mph 4.0 mph 66 % 0.00 in
05:10 48.9 °F 38.1 °F 30.18 in NE 3.0 mph 3.0 mph 66 % 0.00 in
05:20 49.1 °F 37.8 °F 30.18 in NE 1.0 mph 3.0 mph 65 % 0.00 in
05:30 50.4 °F 39.0 °F 30.18 in ENE 2.0 mph 3.0 mph 65 % 0.00 in
05:40 52.2 °F 40.3 °F 30.18 in WSW 2.0 mph 4.0 mph 64 % 0.00 in
05:50 52.9 °F 40.6 °F 30.15 in WSW 3.0 mph 6.0 mph 63 % 0.00 in
06:00 53.4 °F 40.3 °F 30.15 in West 2.0 mph 4.0 mph 61 % 0.00 in
06:10 54.3 °F 40.7 °F 30.12 in WNW 1.0 mph 3.0 mph 60 % 0.00 in
06:20 55.0 °F 41.0 °F 30.12 in WNW 1.0 mph 2.0 mph 59 % 0.00 in
06:30 55.2 °F 40.7 °F 30.12 in West 5.0 mph 5.0 mph 58 % 0.00 in
06:40 56.1 °F 41.1 °F 30.12 in West 1.0 mph 3.0 mph 57 % 0.00 in
06:50 56.1 °F 40.2 °F 30.09 in WSW 6.0 mph 10.0 mph 55 % 0.00 in
07:00 56.8 °F 40.4 °F 30.09 in WSW 1.0 mph 6.0 mph 54 % 0.00 in
07:10 57.4 °F 40.9 °F 30.12 in WSW 3.0 mph 5.0 mph 54 % 0.00 in
07:20 57.7 °F 40.7 °F 30.09 in West 3.0 mph 8.0 mph 53 % 0.00 in
07:30 57.9 °F 40.4 °F 30.09 in West 6.0 mph 6.0 mph 52 % 0.00 in
13:32 57.7 °F 40.2 °F 30.09 in WNW 6.9 mph 6.9 mph 52 % 0.00 in
13:37 57.4 °F 39.4 °F 30.09 in SW 9.2 mph 9.2 mph 51 % 0.00 in
13:42 57.7 °F 39.7 °F 30.09 in WSW 5.4 mph 5.4 mph 51 % 0.00 in
13:47 58.1 °F 40.1 °F 30.06 in SW 3.8 mph 3.8 mph 51 % 0.00 in
13:52 57.6 °F 39.6 °F 30.06 in WNW 12.7 mph 12.7 mph 51 % 0.00 in
13:57 57.4 °F 39.4 °F 30.06 in WSW 5.8 mph 5.8 mph 51 % 0.00 in
14:02 57.2 °F 39.2 °F 30.06 in SW 9.2 mph 9.2 mph 51 % 0.00 in
14:07 57.6 °F 39.6 °F 30.06 in WSW 8.1 mph 8.1 mph 51 % 0.00 in
14:12 57.7 °F 39.7 °F 30.06 in WNW 6.0 mph 6.0 mph 51 % 0.00 in
14:17 57.6 °F 39.6 °F 30.06 in West 5.8 mph 5.8 mph 51 % 0.00 in
14:22 58.1 °F 40.1 °F 30.06 in North 3.5 mph 3.5 mph 51 % 0.00 in
14:27 57.9 °F 39.4 °F 30.06 in ENE 6.9 mph 6.9 mph 50 % 0.00 in
14:32 57.6 °F 39.0 °F 30.06 in WSW 6.9 mph 6.9 mph 50 % 0.00 in
14:37 57.7 °F 39.2 °F 30.06 in SW 5.8 mph 5.8 mph 50 % 0.00 in
14:42 57.7 °F 39.2 °F 30.06 in WSW 6.9 mph 6.9 mph 50 % 0.00 in
14:47 57.9 °F 39.4 °F 30.06 in ENE 5.8 mph 5.8 mph 50 % 0.00 in
14:52 58.3 °F 39.7 °F 30.06 in NW 3.5 mph 3.5 mph 50 % 0.00 in
14:57 58.3 °F 39.2 °F 30.06 in WSW 9.2 mph 9.2 mph 49 % 0.00 in
15:02 58.5 °F 39.4 °F 30.06 in NNW 5.8 mph 5.8 mph 49 % 0.00 in
15:07 58.6 °F 39.5 °F 30.06 in WNW 8.1 mph 8.1 mph 49 % 0.00 in
15:12 58.8 °F 39.2 °F 30.06 in West 9.8 mph 9.8 mph 48 % 0.00 in
15:17 59.0 °F 39.3 °F 30.06 in WSW 5.8 mph 5.8 mph 48 % 0.00 in
15:22 59.7 °F 40.0 °F 30.06 in West 3.6 mph 3.6 mph 48 % 0.00 in
15:27 59.9 °F 40.1 °F 30.06 in NW 8.7 mph 8.7 mph 48 % 0.00 in
15:32 60.1 °F 40.3 °F 30.06 in NW 4.6 mph 4.6 mph 48 % 0.00 in
15:33 60.3 °F 40.5 °F 30.06 in WSW 5.8 mph 5.8 mph 48 % 0.00 in
15:38 59.7 °F 39.4 °F 30.06 in WSW 15.2 mph 15.2 mph 47 % 0.00 in
15:43 59.9 °F 39.1 °F 30.06 in WNW 6.9 mph 6.9 mph 46 % 0.00 in
15:48 60.4 °F 40.1 °F 30.06 in WSW 5.9 mph 5.9 mph 47 % 0.00 in
15:53 60.1 °F 39.2 °F 30.06 in SW 5.8 mph 5.8 mph 46 % 0.00 in
15:58 60.3 °F 39.4 °F 30.06 in ESE 3.5 mph 3.5 mph 46 % 0.00 in
16:03 60.4 °F 39.5 °F 30.06 in West 8.1 mph 8.1 mph 46 % 0.00 in
16:08 60.1 °F 38.7 °F 30.06 in WNW 8.1 mph 8.1 mph 45 % 0.00 in
16:13 59.9 °F 38.5 °F 30.06 in WSW 6.9 mph 6.9 mph 45 % 0.00 in
16:18 59.9 °F 38.5 °F 30.06 in WSW 5.8 mph 5.8 mph 45 % 0.00 in
16:23 60.1 °F 38.7 °F 30.06 in SSW 2.9 mph 2.9 mph 45 % 0.00 in
16:28 60.1 °F 38.7 °F 30.06 in SW 3.5 mph 3.5 mph 45 % 0.00 in
16:33 59.4 °F 38.0 °F 30.03 in SW 4.6 mph 4.6 mph 45 % 0.00 in
16:38 59.0 °F 37.7 °F 30.03 in West 3.5 mph 3.5 mph 45 % 0.00 in
16:43 59.4 °F 38.0 °F 30.03 in SSW 3.5 mph 3.5 mph 45 % 0.00 in
16:48 59.7 °F 38.3 °F 30.06 in WSW 3.5 mph 3.5 mph 45 % 0.00 in
16:53 59.4 °F 38.0 °F 30.06 in NW 2.3 mph 2.3 mph 45 % 0.00 in
16:58 59.0 °F 37.7 °F 30.06 in SSE 4.6 mph 4.6 mph 45 % 0.00 in
17:03 59.4 °F 38.0 °F 30.06 in SSE 1.2 mph   45 % 0.00 in
17:08 59.5 °F 38.2 °F 30.06 in NW 3.5 mph 3.5 mph 45 % 0.00 in
17:13 59.4 °F 38.0 °F 30.06 in West 2.3 mph 2.3 mph 45 % 0.00 in
17:18 59.2 °F 37.8 °F 30.03 in WSW 5.8 mph 5.8 mph 45 % 0.00 in
17:23 59.2 °F 37.8 °F 30.03 in SW 3.5 mph 3.5 mph 45 % 0.00 in
17:28 59.0 °F 37.7 °F 30.03 in SSW 4.6 mph 4.6 mph 45 % 0.00 in
17:33 58.8 °F 37.5 °F 30.03 in West 2.3 mph 2.3 mph 45 % 0.00 in
17:38 58.5 °F 37.2 °F 30.03 in SSW 4.6 mph 4.6 mph 45 % 0.00 in
17:43 58.3 °F 37.0 °F 30.03 in NW 3.5 mph 3.5 mph 45 % 0.00 in
17:48 57.9 °F 36.7 °F 30.06 in WSW 3.5 mph 3.5 mph 45 % 0.00 in
17:53 57.6 °F 36.4 °F 30.06 in West 2.6 mph 2.6 mph 45 % 0.00 in
17:58 57.4 °F 36.2 °F 30.06 in SW 2.3 mph 2.3 mph 45 % 0.00 in
18:03 57.2 °F 36.0 °F 30.03 in WSW 5.4 mph 5.4 mph 45 % 0.00 in
18:08 57.2 °F 36.0 °F 30.03 in SW 3.5 mph 3.5 mph 45 % 0.00 in
18:13 56.8 °F 35.7 °F 30.03 in WSW 3.5 mph 3.5 mph 45 % 0.00 in
18:18 56.5 °F 35.4 °F 30.03 in WSW 2.6 mph 2.6 mph 45 % 0.00 in
18:23 56.3 °F 35.2 °F 30.03 in WSW 3.1 mph 3.1 mph 45 % 0.00 in
18:28 56.5 °F 35.9 °F 30.03 in WNW 3.8 mph 3.8 mph 46 % 0.00 in
18:33 56.3 °F 35.8 °F 30.03 in WSW 3.5 mph 3.5 mph 46 % 0.00 in
18:38 56.1 °F 35.6 °F 30.03 in SW 4.6 mph 4.6 mph 46 % 0.00 in
18:43 56.1 °F 35.6 °F 30.03 in WSW 3.5 mph 4.3 mph 46 % 0.00 in
18:48 55.9 °F 35.4 °F 30.03 in WSW 2.9 mph 2.9 mph 46 % 0.00 in
18:53 55.6 °F 35.1 °F 30.03 in SW 2.4 mph 2.4 mph 46 % 0.00 in
18:58 55.6 °F 35.1 °F 30.03 in WSW 4.6 mph 4.6 mph 46 % 0.00 in
19:03 55.4 °F 35.5 °F 30.00 in WSW 3.5 mph 3.5 mph 47 % 0.00 in
19:08 55.2 °F 35.3 °F 30.00 in West 2.4 mph 2.4 mph 47 % 0.00 in
19:13 55.0 °F 35.2 °F 30.00 in WSW 3.5 mph 3.5 mph 47 % 0.00 in
19:18 54.9 °F 35.0 °F 30.00 in SW 3.5 mph 3.5 mph 47 % 0.00 in
19:23 54.7 °F 35.4 °F 30.00 in West 3.5 mph 3.5 mph 48 % 0.00 in
19:28 54.5 °F 35.2 °F 30.00 in WSW 3.5 mph 3.5 mph 48 % 0.00 in
19:33 54.5 °F 35.2 °F 30.03 in WSW 3.1 mph 3.1 mph 48 % 0.00 in
19:38 54.3 °F 35.5 °F 30.03 in SW 3.1 mph 3.1 mph 49 % 0.00 in
19:43 54.5 °F 35.7 °F 30.03 in SW 5.8 mph 5.8 mph 49 % 0.00 in
19:48 54.5 °F 36.2 °F 30.03 in West 3.5 mph 3.5 mph 50 % 0.00 in
19:53 54.3 °F 36.1 °F 30.03 in West 3.5 mph 3.5 mph 50 % 0.00 in
19:58 54.5 °F 36.2 °F 30.03 in West 3.5 mph 3.5 mph 50 % 0.00 in
20:03 54.5 °F 36.2 °F 30.03 in West 3.5 mph 3.5 mph 50 % 0.00 in
20:08 54.5 °F 36.7 °F 30.03 in West 3.5 mph 3.5 mph 51 % 0.00 in
20:13 54.5 °F 36.7 °F 30.03 in WSW 3.5 mph 3.5 mph 51 % 0.00 in
20:18 54.7 °F 36.9 °F 30.03 in West 5.8 mph 5.8 mph 51 % 0.00 in
20:23 54.9 °F 37.6 °F 30.03 in WSW 5.6 mph 5.6 mph 52 % 0.00 in
20:28 54.9 °F 37.6 °F 30.03 in WSW 5.8 mph 5.8 mph 52 % 0.00 in
20:33 55.0 °F 37.7 °F 30.00 in West 2.3 mph 2.6 mph 52 % 0.00 in
20:38 54.9 °F 37.6 °F 30.00 in WSW 2.4 mph 2.4 mph 52 % 0.00 in
20:43 54.9 °F 37.6 °F 30.00 in West 3.5 mph 3.5 mph 52 % 0.00 in
20:48 55.0 °F 38.2 °F 30.03 in WSW 5.8 mph 5.8 mph 53 % 0.00 in
20:53 54.9 °F 38.0 °F 30.03 in WSW 2.3 mph 2.3 mph 53 % 0.00 in
20:58 54.7 °F 37.9 °F 30.03 in SW 2.3 mph 2.3 mph 53 % 0.00 in
21:03 54.7 °F 37.9 °F 30.00 in WSW 5.8 mph 5.8 mph 53 % 0.00 in
21:08 54.7 °F 37.9 °F 30.00 in WNW 3.5 mph 3.5 mph 53 % 0.00 in
21:13 54.5 °F 38.2 °F 30.00 in SSW 2.3 mph 2.3 mph 54 % 0.00 in
21:18 54.7 °F 38.4 °F 30.00 in South 2.3 mph 2.3 mph 54 % 0.00 in
21:23 54.5 °F 38.2 °F 30.00 in NW 2.3 mph 2.3 mph 54 % 0.00 in
21:28 54.5 °F 38.2 °F 30.00 in WSW 2.3 mph 2.3 mph 54 % 0.00 in
21:33 54.7 °F 38.4 °F 30.00 in WSW 3.5 mph 3.5 mph 54 % 0.00 in
21:38 54.9 °F 38.5 °F 30.00 in West 2.9 mph 2.9 mph 54 % 0.00 in
21:43 54.9 °F 38.5 °F 30.00 in WSW 2.3 mph 2.3 mph 54 % 0.00 in
21:48 54.9 °F 38.5 °F 30.03 in WNW 6.9 mph 6.9 mph 54 % 0.00 in
21:53 54.9 °F 38.5 °F 30.03 in West 4.6 mph 4.6 mph 54 % 0.00 in
21:58 54.9 °F 39.0 °F 30.03 in WSW 3.1 mph 3.1 mph 55 % 0.00 in
22:03 54.9 °F 39.0 °F 30.00 in West 3.5 mph 3.5 mph 55 % 0.00 in
22:08 54.7 °F 38.8 °F 30.00 in WNW 2.3 mph 2.3 mph 55 % 0.00 in
22:13 54.7 °F 38.8 °F 30.00 in West 5.8 mph 5.8 mph 55 % 0.00 in
22:18 54.5 °F 38.7 °F 30.00 in West 3.5 mph 3.5 mph 55 % 0.00 in
22:23 54.3 °F 38.9 °F 30.00 in WNW 3.5 mph 3.5 mph 56 % 0.00 in
22:28 54.3 °F 38.9 °F 30.00 in WSW 3.5 mph 3.5 mph 56 % 0.00 in
22:33 54.1 °F 38.8 °F 30.03 in WSW 4.6 mph 4.6 mph 56 % 0.00 in
22:38 54.3 °F 38.9 °F 30.03 in WSW 4.6 mph 4.6 mph 56 % 0.00 in
22:43 54.1 °F 39.2 °F 30.03 in WSW 6.0 mph 6.0 mph 57 % 0.00 in
22:48 54.3 °F 39.4 °F 30.00 in WSW 5.9 mph 5.9 mph 57 % 0.00 in
22:53 54.3 °F 39.8 °F 30.00 in West 5.8 mph 5.8 mph 58 % 0.00 in
22:58 54.1 °F 39.7 °F 30.00 in WNW 5.8 mph 5.8 mph 58 % 0.00 in
23:03 54.3 °F 40.3 °F 30.03 in NNW 11.4 mph 11.4 mph 59 % 0.00 in
23:08 54.3 °F 40.3 °F 30.03 in NNW 4.6 mph 4.6 mph 59 % 0.00 in
23:13 54.3 °F 40.3 °F 30.03 in WSW 5.8 mph 5.8 mph 59 % 0.00 in
23:18 54.1 °F 40.6 °F 30.03 in SSW 2.3 mph 2.3 mph 60 % 0.00 in
23:23 54.1 °F 40.6 °F 30.03 in WSW 8.1 mph 8.1 mph 60 % 0.00 in
23:28 54.1 °F 40.6 °F 30.03 in NNW 3.5 mph 3.5 mph 60 % 0.00 in
23:33 54.1 °F 40.6 °F 30.03 in West 2.3 mph 2.3 mph 60 % 0.00 in
23:38 54.0 °F 40.4 °F 30.03 in South 4.6 mph 4.6 mph 60 % 0.00 in
23:43 54.0 °F 40.4 °F 30.03 in West 2.3 mph 2.3 mph 60 % 0.00 in
23:48 53.8 °F 40.2 °F 30.06 in WNW 3.5 mph 3.5 mph 60 % 0.00 in
23:53 53.8 °F 40.6 °F 30.06 in West 2.3 mph 2.3 mph 61 % 0.00 in
23:58 53.8 °F 40.6 °F 30.06 in WSW 3.5 mph 3.5 mph 61 % 0.00 in
Meteo Sesrovires
Elogis d' Weather Underground - 1.5 mb

Guio original per  Jim McMurry - jmcmurry@mwt.net Adaptat per a la plantilla per  Wim van der Kuil - Leuven-Template.eu

Trobareu la nostra informacio del temps tambe a:

Weather Underground

AWEKAS